Historique des mesures à Cassis (13260), France
Quotidien Résumé Aout 28, 2017 Unités:  Métrique    US   Métrique/US
« Précédent (Jour)
Suivant (Jour) »
Quotidien Hebdomadaire Mensuel Annuel Période au choix
  Maximum: Minimum: Moyenne:
Température: TemperatureC °C 23.3 °C 25.3 °C
Point de rosée: DewpointC °C 13.2 °C 16.9 °C
Humidité: Humidity % 49 % 57 %
Vitesse du vent: 0 km/h 0 km/h 3.2 km/h
Rafales: 0 km/h - -
Vent:- - ESE
Pression: PressurehPa hPa 1009.0 hPa -
Précipitations: 0.0 mm    
Historical Graphs
 
 
Mesures pour : Aout 28, 2017
Heure Temperature Point de rosée Pression Vent Vitesse du vent Rafales Humidité Pluie (par heure) Conditions
TemperatureC °C DewpointC °C PressurehPa hPa Calm     Humidity % HourlyPrecipMM mm SoftwareType W/m2
00:11 24.3 °C 13.6 °C 1012.1 hPa North 5.1 km/h 9.3 km/h 51 % 0.0 mm open2300-1.11 W/m2
01:11 23.9 °C 13.2 °C 1012.1 hPa NNE 2.3 km/h 2.3 km/h 51 % 0.0 mm open2300-1.11 W/m2
02:11 23.6 °C 13.7 °C 1011.4 hPa North 3.4 km/h 7.6 km/h 54 % 0.0 mm open2300-1.11 W/m2
03:11 23.3 °C 14.0 °C 1010.7 hPa North 4.7 km/h 5.1 km/h 56 % 0.0 mm open2300-1.11 W/m2
04:11 23.6 °C 14.6 °C 1010.4 hPa NNE 3.4 km/h 9.3 km/h 57 % 0.0 mm open2300-1.11 W/m2
05:11 24.0 °C 14.1 °C 1010.0 hPa Calm   2.9 km/h 54 % 0.0 mm open2300-1.11 W/m2
06:11 23.9 °C 13.7 °C 1010.0 hPa Calm     53 % 0.0 mm open2300-1.11 W/m2
07:11 23.5 °C 13.6 °C 1010.4 hPa Calm   4.2 km/h 54 % 0.0 mm open2300-1.11 W/m2
08:11 23.9 °C 14.0 °C 1010.4 hPa Calm     54 % 0.0 mm open2300-1.11 W/m2
09:11 25.4 °C 15.4 °C 1011.1 hPa SE 2.3 km/h 4.2 km/h 54 % 0.0 mm open2300-1.11 W/m2
10:11 26.4 °C 18.6 °C 1011.7 hPa SSE 7.6 km/h 7.6 km/h 62 % 0.0 mm open2300-1.11 W/m2
11:11 27.8 °C 20.3 °C 1011.7 hPa SSE 12.2 km/h 12.2 km/h 64 % 0.0 mm open2300-1.11 W/m2
12:11 29.7 °C 21.1 °C 1011.7 hPa SSE 9.3 km/h 9.3 km/h 60 % 0.0 mm open2300-1.11 W/m2
13:11 30.6 °C 19.9 °C 1011.1 hPa SW 6.9 km/h 7.6 km/h 53 % 0.0 mm open2300-1.11 W/m2
14:11 30.5 °C 21.0 °C 1010.4 hPa Calm   6.4 km/h 57 % 0.0 mm open2300-1.11 W/m2
15:11 30.5 °C 19.6 °C 1010.0 hPa SW 9.8 km/h 12.2 km/h 52 % 0.0 mm open2300-1.11 W/m2
16:11 30.1 °C 18.2 °C 1009.7 hPa South 4.7 km/h 19.2 km/h 49 % 0.0 mm open2300-1.11 W/m2
17:11 29.5 °C 20.4 °C 1009.4 hPa East 5.1 km/h 15 km/h 58 % 0.0 mm open2300-1.11 W/m2
18:11 28.5 °C 21.2 °C 1009.0 hPa SSE 2.3 km/h 16.3 km/h 65 % 0.0 mm open2300-1.11 W/m2
19:11 27.5 °C 21.1 °C 1009.0 hPa SSE 1.8 km/h 4.7 km/h 68 % 0.0 mm open2300-1.11 W/m2
20:11 26.6 °C 20.9 °C 1009.4 hPa Calm     71 % 0.0 mm open2300-1.11 W/m2
21:11 25.6 °C 20.6 °C 1009.4 hPa Calm     74 % 0.0 mm open2300-1.11 W/m2
22:11 24.9 °C 19.7 °C 1009.7 hPa Calm     73 % 0.0 mm open2300-1.11 W/m2
23:11 24.2 °C 19.1 °C 1009.7 hPa Calm     73 % 0.0 mm open2300-1.11 W/m2
Observations météo à CASSIS
WU-History script by Weather Underground - 1 mb